createdAt,value
2022-10-12T00:03:17.513Z,4.04
2022-10-12T00:08:40.239Z,4.20
2022-10-12T00:14:03.334Z,4.26
2022-10-12T00:19:25.944Z,4.16
2022-10-12T00:24:48.098Z,4.03
2022-10-12T00:30:10.900Z,3.91
2022-10-12T00:35:34.730Z,3.78
2022-10-12T00:40:56.860Z,3.58
2022-10-12T00:46:26.302Z,3.44
2022-10-12T00:51:49.110Z,3.41
2022-10-12T00:57:13.650Z,3.31
2022-10-12T01:02:37.416Z,3.23
2022-10-12T01:08:00.899Z,3.41
2022-10-12T01:13:24.693Z,3.38
2022-10-12T01:18:51.767Z,3.27
2022-10-12T01:24:43.148Z,3.36
2022-10-12T01:30:15.777Z,3.36
2022-10-12T01:36:07.211Z,3.27
2022-10-12T01:41:46.541Z,3.20
2022-10-12T01:47:09.595Z,3.17
2022-10-12T01:52:45.293Z,3.19
2022-10-12T01:58:12.855Z,3.18
2022-10-12T02:03:43.174Z,3.11
2022-10-12T02:09:13.159Z,3.16
2022-10-12T02:14:46.017Z,3.03
2022-10-12T02:20:11.584Z,3.16
2022-10-12T02:25:36.742Z,3.21
2022-10-12T02:31:36.824Z,3.16
2022-10-12T02:37:19.083Z,3.16
2022-10-12T02:43:08.799Z,3.17
2022-10-12T02:48:12.297Z,3.13
2022-10-12T02:53:35.938Z,3.11
2022-10-12T02:59:01.132Z,3.11
2022-10-12T03:04:24.040Z,3.06
2022-10-12T03:09:46.537Z,3.10
2022-10-12T03:15:08.781Z,3.12
2022-10-12T03:20:31.334Z,3.04
2022-10-12T03:25:54.442Z,3.10
2022-10-12T03:31:17.177Z,3.09
2022-10-12T03:36:39.387Z,2.98
2022-10-12T03:42:01.525Z,3.02
2022-10-12T03:47:24.139Z,3.06
2022-10-12T03:52:46.291Z,3.03
2022-10-12T03:58:09.057Z,2.86
2022-10-12T04:03:31.244Z,2.84
2022-10-12T04:08:54.778Z,2.88
2022-10-12T04:14:16.906Z,2.82
2022-10-12T04:19:39.923Z,2.71
2022-10-12T04:25:02.581Z,2.68
2022-10-12T04:30:25.598Z,2.72
2022-10-12T04:35:48.268Z,2.65
2022-10-12T04:41:10.892Z,2.58
2022-10-12T04:46:33.443Z,2.56
2022-10-12T04:51:55.596Z,2.50
2022-10-12T04:57:18.186Z,2.51
2022-10-12T05:02:40.663Z,2.53
2022-10-12T05:08:03.309Z,2.39
2022-10-12T05:13:26.771Z,2.34
2022-10-12T05:18:48.886Z,2.26
2022-10-12T05:24:11.746Z,2.12
2022-10-12T05:29:33.878Z,2.18
2022-10-12T05:34:56.022Z,2.27
2022-10-12T05:40:18.495Z,2.25
2022-10-12T05:45:40.646Z,2.26
2022-10-12T05:51:06.836Z,2.29
2022-10-12T05:56:28.997Z,2.38
2022-10-12T06:01:51.206Z,2.41
2022-10-12T06:07:13.395Z,2.42
2022-10-12T06:12:36.078Z,2.53
2022-10-12T06:17:58.736Z,2.65
2022-10-12T06:23:20.898Z,2.77
2022-10-12T06:28:45.153Z,3.00
2022-10-12T06:34:07.393Z,3.16
2022-10-12T06:39:29.732Z,3.29
2022-10-12T06:44:51.931Z,3.45
2022-10-12T06:50:14.805Z,3.58
2022-10-12T06:55:37.628Z,3.68
2022-10-12T07:01:00.352Z,3.93
2022-10-12T07:06:27.420Z,4.18
2022-10-12T07:11:50.050Z,4.48
2022-10-12T07:17:12.593Z,4.73
2022-10-12T07:22:34.873Z,5.03
2022-10-12T07:27:58.786Z,5.36
2022-10-12T07:33:21.900Z,5.65
2022-10-12T07:38:48.521Z,5.91
2022-10-12T07:44:14.766Z,6.15
2022-10-12T07:49:37.015Z,6.36
2022-10-12T07:54:59.200Z,6.59
2022-10-12T08:00:22.492Z,6.90
2022-10-12T08:05:45.481Z,7.04
2022-10-12T08:11:08.292Z,7.29
2022-10-12T08:16:33.691Z,7.64
2022-10-12T08:21:56.951Z,7.84
2022-10-12T08:27:19.065Z,8.04
2022-10-12T08:32:43.297Z,8.20
2022-10-12T08:38:06.897Z,8.52
2022-10-12T08:43:52.228Z,8.79
2022-10-12T08:49:21.759Z,9.03
2022-10-12T08:54:50.069Z,9.29
2022-10-12T09:00:13.482Z,9.49
2022-10-12T09:05:46.951Z,9.80
2022-10-12T09:11:39.610Z,10.04
2022-10-12T09:17:09.324Z,10.26
2022-10-12T09:22:41.943Z,10.60
2022-10-12T09:28:07.118Z,10.85
2022-10-12T09:33:38.241Z,11.23
2022-10-12T09:39:01.852Z,11.33
2022-10-12T09:44:28.395Z,11.50
2022-10-12T09:50:06.934Z,11.71
2022-10-12T09:55:38.340Z,12.53
2022-10-12T10:01:22.040Z,13.57
2022-10-12T10:06:45.680Z,14.69
2022-10-12T10:12:29.090Z,14.40
2022-10-12T10:17:54.589Z,14.37
2022-10-12T10:23:31.552Z,15.24
2022-10-12T10:28:57.910Z,15.14
2022-10-12T10:34:28.329Z,15.63
2022-10-12T10:39:55.603Z,14.92
2022-10-12T10:45:22.460Z,15.74
2022-10-12T10:50:48.579Z,16.12
2022-10-12T10:56:24.393Z,16.60
2022-10-12T11:02:07.136Z,16.87
2022-10-12T11:07:52.604Z,16.93
2022-10-12T11:13:22.818Z,16.24
2022-10-12T11:18:52.858Z,15.07
2022-10-12T11:24:40.417Z,13.70
2022-10-12T11:30:09.927Z,13.22
2022-10-12T11:35:42.772Z,13.04
2022-10-12T11:41:35.120Z,13.15
2022-10-12T11:46:50.626Z,13.11
2022-10-12T11:52:16.922Z,13.01
2022-10-12T11:57:42.612Z,13.10
2022-10-12T12:03:24.840Z,13.21
2022-10-12T12:09:03.660Z,13.25
2022-10-12T12:14:49.105Z,13.10
2022-10-12T12:20:26.887Z,13.20
2022-10-12T12:25:50.318Z,13.10
2022-10-12T12:31:26.161Z,13.17
2022-10-12T12:36:54.543Z,13.17
2022-10-12T12:42:21.699Z,13.14
2022-10-12T12:47:58.107Z,13.11
2022-10-12T12:53:27.876Z,13.28
2022-10-12T12:59:29.852Z,13.46
2022-10-12T13:05:09.669Z,13.42
2022-10-12T13:11:04.119Z,13.41
2022-10-12T13:22:35.551Z,13.53
2022-10-12T13:28:06.406Z,13.54
2022-10-12T13:33:39.717Z,13.57
2022-10-12T13:39:04.233Z,13.33
2022-10-12T13:44:39.553Z,13.09
2022-10-12T13:50:02.501Z,13.07
2022-10-12T13:55:31.536Z,13.14
2022-10-12T14:00:55.941Z,13.08
2022-10-12T14:06:31.677Z,13.04
2022-10-12T14:11:55.148Z,12.94
2022-10-12T14:17:25.664Z,12.88
2022-10-12T14:22:51.132Z,12.82
2022-10-12T14:28:24.039Z,12.79
2022-10-12T14:33:47.531Z,12.71
2022-10-12T14:39:19.881Z,12.63
2022-10-12T14:44:50.849Z,12.57
2022-10-12T14:50:18.254Z,12.54
2022-10-12T14:55:44.502Z,12.46
2022-10-12T15:01:07.449Z,12.40
2022-10-12T15:06:31.639Z,12.27
2022-10-12T15:11:53.805Z,12.17
2022-10-12T15:17:19.740Z,12.09
2022-10-12T15:22:45.117Z,11.94
2022-10-12T15:28:08.490Z,11.82
2022-10-12T15:33:31.957Z,11.74
2022-10-12T15:38:54.156Z,11.54
2022-10-12T15:44:19.863Z,11.36
2022-10-12T15:49:42.550Z,11.13
2022-10-12T15:55:04.671Z,10.96
2022-10-12T16:00:31.734Z,10.85
2022-10-12T16:05:55.052Z,10.69
2022-10-12T16:11:19.601Z,10.54
2022-10-12T16:16:41.714Z,10.47
2022-10-12T16:22:05.411Z,10.34
2022-10-12T16:27:27.626Z,10.25
2022-10-12T16:32:49.840Z,10.18
2022-10-12T16:38:12.059Z,10.11
2022-10-12T16:43:34.372Z,10.01
2022-10-12T16:48:56.805Z,9.99
2022-10-12T16:54:19.214Z,9.94
2022-10-12T16:59:41.992Z,9.92
2022-10-12T17:05:04.800Z,9.89
2022-10-12T17:10:27.308Z,9.81
2022-10-12T17:15:54.501Z,9.75
2022-10-12T17:21:17.263Z,9.70
2022-10-12T17:26:41.084Z,9.64
2022-10-12T17:32:05.251Z,9.70
2022-10-12T17:37:28.530Z,9.75
2022-10-12T17:42:51.126Z,9.72
2022-10-12T17:48:14.936Z,9.65
2022-10-12T17:53:38.319Z,9.60
2022-10-12T17:59:03.772Z,9.48
2022-10-12T18:04:26.172Z,9.39
2022-10-12T18:09:49.257Z,9.20
2022-10-12T18:15:12.385Z,8.96
2022-10-12T18:20:34.533Z,8.67
2022-10-12T18:25:58.608Z,8.41
2022-10-12T18:31:23.158Z,8.16
2022-10-12T18:36:46.104Z,8.01
2022-10-12T18:42:10.182Z,7.73
2022-10-12T18:47:32.526Z,7.40
2022-10-12T18:52:55.341Z,7.12
2022-10-12T18:58:18.597Z,6.95
2022-10-12T19:03:41.783Z,6.76
2022-10-12T19:09:05.044Z,6.52
2022-10-12T19:14:29.395Z,6.42
2022-10-12T19:19:51.702Z,6.40
2022-10-12T19:25:14.809Z,6.27
2022-10-12T19:30:37.154Z,6.25
2022-10-12T19:35:59.485Z,6.06
2022-10-12T19:41:21.985Z,5.81
2022-10-12T19:46:47.273Z,5.73
2022-10-12T19:52:09.832Z,5.68
2022-10-12T19:57:35.415Z,5.62
2022-10-12T20:02:56.836Z,5.41
2022-10-12T20:08:19.045Z,5.39
2022-10-12T20:13:42.090Z,5.32
2022-10-12T20:19:05.436Z,5.22
2022-10-12T20:24:28.366Z,5.24
2022-10-12T20:29:50.521Z,5.20
2022-10-12T20:35:12.853Z,5.17
2022-10-12T20:40:34.996Z,5.45
2022-10-12T20:45:58.097Z,5.39
2022-10-12T20:51:27.931Z,5.30
2022-10-12T20:56:52.677Z,5.12
2022-10-12T21:02:16.050Z,5.15
2022-10-12T21:07:38.573Z,5.13
2022-10-12T21:13:00.904Z,5.06
2022-10-12T21:18:23.083Z,4.87
2022-10-12T21:23:46.931Z,4.69
2022-10-12T21:29:10.445Z,4.60
2022-10-12T21:34:32.571Z,4.45
2022-10-12T21:39:55.211Z,4.53
2022-10-12T21:45:18.029Z,4.59
2022-10-12T21:50:40.999Z,4.57
2022-10-12T21:56:03.213Z,4.80
2022-10-12T22:01:34.519Z,4.81
2022-10-12T22:07:00.459Z,4.56
2022-10-12T22:12:21.160Z,4.34
2022-10-12T22:17:43.762Z,4.26
2022-10-12T22:23:05.998Z,4.16
2022-10-12T22:28:28.675Z,3.99
2022-10-12T22:33:50.937Z,3.91
2022-10-12T22:39:13.080Z,3.82
2022-10-12T22:44:35.257Z,3.82
2022-10-12T22:49:57.396Z,4.06
2022-10-12T22:55:20.746Z,4.19
2022-10-12T23:00:43.085Z,4.14
2022-10-12T23:06:08.333Z,4.06
2022-10-12T23:11:36.259Z,3.96
2022-10-12T23:16:58.404Z,3.86
2022-10-12T23:22:20.976Z,3.62
2022-10-12T23:27:43.448Z,3.54
2022-10-12T23:33:06.376Z,3.40
2022-10-12T23:38:28.519Z,3.57
2022-10-12T23:43:51.050Z,3.47
2022-10-12T23:49:13.202Z,3.41
2022-10-12T23:54:36.532Z,3.34
2022-10-12T23:59:59.813Z,3.30
